createdAt,value
2022-08-18T00:01:16.398Z,7.50
2022-08-18T00:03:53.557Z,7.73
2022-08-18T00:06:28.581Z,8.17
2022-08-18T00:08:59.021Z,6.83
2022-08-18T00:11:27.841Z,7.50
2022-08-18T00:13:55.923Z,7.97
2022-08-18T00:16:25.396Z,7.40
2022-08-18T00:18:53.483Z,7.20
2022-08-18T00:21:21.972Z,7.07
2022-08-18T00:23:50.362Z,7.60
2022-08-18T00:26:19.544Z,6.60
2022-08-18T00:28:47.650Z,7.10
2022-08-18T00:31:15.829Z,7.23
2022-08-18T00:33:45.337Z,7.10
2022-08-18T00:36:13.698Z,7.37
2022-08-18T00:38:41.811Z,7.70
2022-08-18T00:41:10.629Z,7.10
2022-08-18T00:43:44.033Z,6.50
2022-08-18T00:46:20.996Z,6.63
2022-08-18T00:48:50.407Z,7.97
2022-08-18T00:51:25.742Z,7.00
2022-08-18T00:54:03.064Z,7.10
2022-08-18T00:56:37.010Z,7.50
2022-08-18T00:59:10.658Z,7.10
2022-08-18T01:01:41.109Z,6.60
2022-08-18T01:04:17.676Z,7.07
2022-08-18T01:06:51.324Z,6.40
2022-08-18T01:09:19.631Z,6.27
2022-08-18T01:11:47.988Z,7.10
2022-08-18T01:14:18.170Z,6.90
2022-08-18T01:17:04.943Z,6.40
2022-08-18T01:19:53.045Z,7.63
2022-08-18T01:22:30.344Z,7.00
2022-08-18T01:25:19.777Z,6.40
2022-08-18T01:27:47.905Z,6.27
2022-08-18T01:30:19.159Z,7.40
2022-08-18T01:32:47.210Z,7.37
2022-08-18T01:35:18.277Z,6.10
2022-08-18T01:37:46.360Z,6.30
2022-08-18T01:41:17.333Z,6.03
2022-08-18T01:43:07.358Z,6.53
2022-08-18T01:45:35.490Z,6.70
2022-08-18T01:48:04.661Z,6.60
2022-08-18T01:50:35.070Z,7.03
2022-08-18T01:53:05.462Z,6.73
2022-08-18T01:55:37.233Z,6.80
2022-08-18T01:58:06.832Z,6.93
2022-08-18T02:00:36.081Z,6.60
2022-08-18T02:03:08.846Z,7.23
2022-08-18T02:05:40.875Z,5.93
2022-08-18T02:08:12.311Z,6.30
2022-08-18T02:10:43.211Z,6.67
2022-08-18T02:13:11.283Z,6.13
2022-08-18T02:15:41.948Z,6.70
2022-08-18T02:18:25.755Z,6.30
2022-08-18T02:21:11.873Z,6.40
2022-08-18T02:23:41.061Z,6.70
2022-08-18T02:26:23.600Z,6.53
2022-08-18T02:28:52.328Z,6.80
2022-08-18T02:31:24.390Z,6.50
2022-08-18T02:33:54.057Z,6.80
2022-08-18T02:36:25.296Z,6.40
2022-08-18T02:38:58.945Z,6.17
2022-08-18T02:41:31.232Z,7.43
2022-08-18T02:43:59.933Z,5.60
2022-08-18T02:46:29.872Z,5.83
2022-08-18T02:49:00.259Z,5.70
2022-08-18T02:51:28.687Z,6.67
2022-08-18T02:53:59.250Z,6.53
2022-08-18T02:56:39.981Z,7.13
2022-08-18T02:59:19.781Z,6.40
2022-08-18T03:01:52.482Z,5.97
2022-08-18T03:04:29.196Z,6.00
2022-08-18T03:07:00.665Z,5.63
2022-08-18T03:09:30.225Z,5.47
2022-08-18T03:12:00.285Z,6.13
2022-08-18T03:14:29.434Z,6.20
2022-08-18T03:16:58.134Z,6.17
2022-08-18T03:19:28.665Z,5.77
2022-08-18T03:22:02.521Z,5.53
2022-08-18T03:24:33.142Z,6.37
2022-08-18T03:27:07.086Z,5.87
2022-08-18T03:29:35.538Z,6.20
2022-08-18T03:32:05.817Z,5.77
2022-08-18T03:34:34.832Z,5.90
2022-08-18T03:37:03.097Z,6.53
2022-08-18T03:39:31.507Z,5.27
2022-08-18T03:42:01.709Z,5.87
2022-08-18T03:44:36.458Z,6.30
2022-08-18T03:47:08.680Z,6.10
2022-08-18T03:49:37.806Z,6.00
2022-08-18T03:52:09.699Z,6.50
2022-08-18T03:54:39.126Z,6.17
2022-08-18T03:57:10.028Z,5.83
2022-08-18T03:59:41.389Z,6.23
2022-08-18T04:02:09.440Z,6.43
2022-08-18T04:04:37.697Z,5.87
2022-08-18T04:07:14.274Z,5.50
2022-08-18T04:09:42.999Z,5.47
2022-08-18T04:12:16.445Z,6.00
2022-08-18T04:14:49.638Z,5.50
2022-08-18T04:17:24.305Z,5.50
2022-08-18T04:19:52.877Z,5.60
2022-08-18T04:22:21.040Z,5.90
2022-08-18T04:24:50.155Z,6.13
2022-08-18T04:27:19.758Z,5.53
2022-08-18T04:29:49.609Z,5.90
2022-08-18T04:32:19.283Z,6.40
2022-08-18T04:34:47.342Z,5.50
2022-08-18T04:37:16.318Z,5.90
2022-08-18T04:39:45.488Z,5.70
2022-08-18T04:42:13.748Z,5.77
2022-08-18T04:44:41.970Z,6.80
2022-08-18T04:47:13.173Z,5.67
2022-08-18T04:49:41.378Z,5.40
2022-08-18T04:52:40.320Z,5.30
2022-08-18T04:55:10.402Z,5.37
2022-08-18T04:57:38.951Z,5.37
2022-08-18T05:00:13.513Z,6.10
2022-08-18T05:02:43.858Z,4.97
2022-08-18T05:05:12.024Z,5.57
2022-08-18T05:07:46.620Z,6.43
2022-08-18T05:10:17.542Z,6.00
2022-08-18T05:12:48.636Z,6.40
2022-08-18T05:15:17.620Z,7.07
2022-08-18T05:17:50.513Z,7.00
2022-08-18T05:20:19.725Z,6.47
2022-08-18T05:22:47.951Z,6.57
2022-08-18T05:25:16.126Z,7.00
2022-08-18T05:27:45.023Z,6.07
2022-08-18T05:30:14.854Z,7.10
2022-08-18T05:32:50.058Z,5.80
2022-08-18T05:35:24.861Z,6.80
2022-08-18T05:38:15.450Z,6.70
2022-08-18T05:40:45.987Z,7.17
2022-08-18T05:43:16.030Z,6.23
2022-08-18T05:45:44.448Z,6.53
2022-08-18T05:48:15.433Z,6.07
2022-08-18T05:50:44.064Z,6.60
2022-08-18T05:53:18.301Z,7.07
2022-08-18T05:56:17.978Z,6.40
2022-08-18T05:58:51.914Z,7.77
2022-08-18T06:01:25.266Z,6.57
2022-08-18T06:04:03.946Z,6.17
2022-08-18T06:06:33.920Z,6.70
2022-08-18T06:09:22.656Z,8.53
2022-08-18T06:11:51.998Z,10.40
2022-08-18T06:14:20.110Z,22.53
2022-08-18T06:16:58.293Z,26.13
2022-08-18T06:19:43.911Z,35.17
2022-08-18T06:22:24.330Z,38.27
2022-08-18T06:25:04.925Z,36.70
2022-08-18T06:27:50.185Z,35.00
2022-08-18T06:30:24.705Z,34.37
2022-08-18T06:33:13.475Z,33.57
2022-08-18T06:35:49.998Z,38.17
2022-08-18T06:38:39.515Z,36.77
2022-08-18T06:41:41.689Z,35.60
2022-08-18T06:44:08.000Z,38.03
2022-08-18T06:46:46.813Z,35.87
2022-08-18T06:49:25.849Z,29.30
2022-08-18T06:51:55.296Z,28.87
2022-08-18T06:54:30.505Z,27.83
2022-08-18T06:56:59.709Z,33.20
2022-08-18T06:59:32.501Z,35.40
2022-08-18T07:02:11.493Z,31.10
2022-08-18T07:04:43.617Z,29.30
2022-08-18T07:07:39.892Z,34.83
2022-08-18T07:10:31.921Z,33.20
2022-08-18T07:13:18.425Z,29.43
2022-08-18T07:15:48.442Z,29.80
2022-08-18T07:18:26.044Z,28.00
2022-08-18T07:20:58.104Z,26.93
2022-08-18T07:23:33.746Z,27.87
2022-08-18T07:26:10.754Z,25.40
2022-08-18T07:28:44.248Z,24.70
2022-08-18T07:31:25.802Z,26.00
2022-08-18T07:33:59.865Z,26.00
2022-08-18T07:36:31.941Z,29.03
2022-08-18T07:39:07.384Z,30.90
2022-08-18T07:41:43.889Z,28.93
2022-08-18T07:44:22.670Z,27.50
2022-08-18T07:47:00.513Z,27.00
2022-08-18T07:49:43.006Z,26.00
2022-08-18T07:52:44.112Z,26.90
2022-08-18T07:55:28.602Z,25.40
2022-08-18T07:58:13.627Z,26.13
2022-08-18T08:01:05.506Z,25.00
2022-08-18T08:03:50.669Z,25.07
2022-08-18T08:06:29.930Z,27.03
2022-08-18T08:09:07.736Z,24.40
2022-08-18T08:11:52.237Z,25.27
2022-08-18T08:14:38.863Z,23.20
2022-08-18T08:17:17.201Z,25.23
2022-08-18T08:20:14.695Z,22.70
2022-08-18T08:23:03.650Z,23.07
2022-08-18T08:25:47.429Z,23.60
2022-08-18T08:28:31.804Z,23.80
2022-08-18T08:31:33.146Z,24.00
2022-08-18T08:34:06.168Z,23.83
2022-08-18T08:36:38.979Z,22.80
2022-08-18T08:39:15.477Z,23.77
2022-08-18T08:41:51.773Z,23.27
2022-08-18T08:44:27.321Z,22.57
2022-08-18T08:47:00.188Z,24.03
2022-08-18T08:49:38.601Z,21.37
2022-08-18T08:52:18.753Z,23.03
2022-08-18T08:54:53.632Z,22.90
2022-08-18T08:57:28.562Z,23.50
2022-08-18T09:00:01.786Z,22.80
2022-08-18T09:02:56.017Z,22.20
2022-08-18T09:05:28.297Z,23.90
2022-08-18T09:08:28.706Z,21.13
2022-08-18T09:11:23.013Z,21.77
2022-08-18T09:14:40.261Z,23.00
2022-08-18T09:17:34.175Z,20.33
2022-08-18T09:20:37.350Z,18.80
2022-08-18T09:23:10.174Z,20.17
2022-08-18T09:25:49.805Z,18.50
2022-08-18T09:28:21.369Z,16.30
2022-08-18T09:31:19.497Z,20.07
2022-08-18T09:34:10.617Z,20.40
2022-08-18T09:37:11.059Z,19.00
2022-08-18T09:40:10.839Z,18.90
2022-08-18T09:45:59.586Z,19.57
2022-08-18T09:48:34.357Z,18.40
2022-08-18T09:51:34.241Z,17.13
2022-08-18T09:54:21.874Z,13.50
2022-08-18T09:57:21.510Z,13.53
2022-08-18T10:00:28.386Z,11.10
2022-08-18T10:03:13.472Z,12.40
2022-08-18T10:05:59.549Z,10.83
2022-08-18T10:08:54.825Z,9.40
2022-08-18T10:11:47.694Z,10.93
2022-08-18T10:14:59.525Z,10.17
2022-08-18T10:17:49.985Z,9.53
2022-08-18T10:20:34.649Z,10.00
2022-08-18T10:23:04.461Z,10.33
2022-08-18T10:25:41.099Z,9.73
2022-08-18T10:28:13.070Z,9.20
2022-08-18T10:31:09.814Z,8.93
2022-08-18T10:34:16.413Z,9.93
2022-08-18T10:36:53.412Z,9.47
2022-08-18T10:39:24.832Z,9.43
2022-08-18T10:42:04.523Z,10.37
2022-08-18T10:44:41.870Z,9.07
2022-08-18T10:47:12.296Z,10.40
2022-08-18T10:53:35.330Z,9.70
2022-08-18T10:56:01.375Z,9.67
2022-08-18T10:58:48.889Z,9.63
2022-08-18T11:01:42.987Z,9.33
2022-08-18T11:04:34.488Z,8.80
2022-08-18T11:07:19.685Z,9.50
2022-08-18T11:10:04.523Z,8.57
2022-08-18T11:13:02.891Z,8.63
2022-08-18T11:15:48.754Z,8.90
2022-08-18T11:18:36.376Z,9.53
2022-08-18T11:21:33.836Z,8.60
2022-08-18T11:24:15.983Z,8.77
2022-08-18T11:26:53.138Z,8.93
2022-08-18T11:29:32.793Z,8.97
2022-08-18T11:32:11.067Z,9.13
2022-08-18T11:34:52.175Z,10.27
2022-08-18T11:37:28.034Z,12.00
2022-08-18T11:43:29.841Z,11.70
2022-08-18T11:46:27.863Z,10.40
2022-08-18T11:52:29.468Z,10.33
2022-08-18T11:55:14.446Z,10.53
2022-08-18T11:57:58.600Z,9.60
2022-08-18T12:03:48.981Z,10.83
2022-08-18T12:06:28.012Z,12.73
2022-08-18T12:09:02.916Z,10.10
2022-08-18T12:11:33.903Z,10.27
2022-08-18T12:14:31.489Z,11.80
2022-08-18T12:16:57.562Z,10.40
2022-08-18T12:19:30.738Z,11.80
2022-08-18T12:22:10.987Z,12.60
2022-08-18T12:24:50.102Z,10.63
2022-08-18T12:27:22.265Z,11.93
2022-08-18T12:29:51.613Z,11.23
2022-08-18T12:32:48.978Z,12.53
2022-08-18T12:35:12.199Z,12.10
2022-08-18T12:38:12.504Z,11.97
2022-08-18T12:40:32.561Z,11.43
2022-08-18T12:43:01.109Z,11.23
2022-08-18T12:45:30.908Z,11.70
2022-08-18T12:48:04.336Z,11.07
2022-08-18T12:50:37.584Z,12.77
2022-08-18T12:53:12.491Z,13.80
2022-08-18T12:55:45.622Z,12.87
2022-08-18T12:58:13.992Z,11.10
2022-08-18T13:00:43.267Z,11.00
2022-08-18T13:03:11.829Z,12.30
2022-08-18T13:05:40.175Z,12.43
2022-08-18T13:08:27.635Z,12.83
2022-08-18T13:11:14.816Z,10.70
2022-08-18T13:13:52.715Z,9.53
2022-08-18T13:16:38.757Z,9.60
2022-08-18T13:19:13.101Z,9.50
2022-08-18T13:21:42.933Z,8.83
2022-08-18T13:24:13.045Z,9.00
2022-08-18T13:26:45.913Z,9.47
2022-08-18T13:29:15.454Z,8.63
2022-08-18T13:31:55.871Z,9.33
2022-08-18T13:34:30.064Z,9.13
2022-08-18T13:36:59.041Z,9.37
2022-08-18T13:39:33.797Z,8.50
2022-08-18T13:42:26.399Z,9.50
2022-08-18T13:44:53.239Z,8.40
2022-08-18T13:47:22.563Z,8.97
2022-08-18T13:49:58.002Z,9.23
2022-08-18T13:52:34.701Z,8.63
2022-08-18T13:55:11.678Z,11.33
2022-08-18T13:57:48.022Z,10.67
2022-08-18T14:00:30.415Z,11.50
2022-08-18T14:03:03.250Z,20.37
2022-08-18T14:05:36.768Z,19.10
2022-08-18T14:08:19.850Z,17.00
2022-08-18T14:10:52.278Z,16.27
2022-08-18T14:13:24.635Z,13.77
2022-08-18T14:15:56.016Z,12.07
2022-08-18T14:18:29.165Z,13.67
2022-08-18T14:21:17.219Z,11.23
2022-08-18T14:24:14.709Z,11.83
2022-08-18T14:26:51.040Z,13.10
2022-08-18T14:29:46.412Z,11.70
2022-08-18T14:32:09.256Z,11.97
2022-08-18T14:34:50.702Z,11.17
2022-08-18T14:37:19.847Z,11.53
2022-08-18T14:39:50.260Z,13.20
2022-08-18T14:42:21.045Z,11.10
2022-08-18T14:45:16.913Z,10.13
2022-08-18T14:47:54.133Z,10.87
2022-08-18T14:50:25.193Z,10.67
2022-08-18T14:52:54.684Z,10.57
2022-08-18T14:55:24.435Z,9.70
2022-08-18T14:57:54.341Z,9.27
2022-08-18T15:00:22.926Z,8.80
2022-08-18T15:02:52.405Z,9.77
2022-08-18T15:05:24.674Z,8.60
2022-08-18T15:07:53.828Z,8.40
2022-08-18T15:10:23.633Z,8.83
2022-08-18T15:13:00.415Z,9.40
2022-08-18T15:15:50.567Z,9.47
2022-08-18T15:18:22.369Z,8.70
2022-08-18T15:21:10.285Z,8.53
2022-08-18T15:24:14.968Z,8.07
2022-08-18T15:26:51.822Z,9.40
2022-08-18T15:29:29.473Z,8.20
2022-08-18T15:32:02.355Z,8.77
2022-08-18T15:34:46.484Z,9.83
2022-08-18T15:37:24.167Z,11.13
2022-08-18T15:40:05.237Z,10.90
2022-08-18T15:42:33.452Z,9.97
2022-08-18T15:45:12.331Z,11.10
2022-08-18T15:47:42.673Z,10.00
2022-08-18T15:50:22.426Z,10.20
2022-08-18T15:52:57.944Z,10.83
2022-08-18T15:55:35.859Z,10.23
2022-08-18T15:58:10.915Z,10.00
2022-08-18T16:00:45.749Z,10.37
2022-08-18T16:03:16.361Z,10.70
2022-08-18T16:05:51.501Z,9.73
2022-08-18T16:08:23.709Z,10.60
2022-08-18T16:10:53.422Z,10.53
2022-08-18T16:13:22.452Z,11.93
2022-08-18T16:15:52.200Z,10.87
2022-08-18T16:18:21.910Z,11.70
2022-08-18T16:20:50.652Z,11.50
2022-08-18T16:23:21.163Z,11.47
2022-08-18T16:25:49.314Z,11.90
2022-08-18T16:28:17.517Z,11.70
2022-08-18T16:30:48.390Z,13.37
2022-08-18T16:33:17.839Z,12.97
2022-08-18T16:35:47.661Z,12.90
2022-08-18T16:38:15.797Z,10.77
2022-08-18T16:40:44.023Z,12.43
2022-08-18T16:43:14.683Z,12.20
2022-08-18T16:45:43.470Z,12.73
2022-08-18T16:48:16.634Z,11.83
2022-08-18T16:50:47.262Z,12.90
2022-08-18T16:53:15.421Z,11.50
2022-08-18T16:55:44.064Z,13.20
2022-08-18T16:58:30.446Z,12.80
2022-08-18T17:01:18.950Z,13.97
2022-08-18T17:04:13.564Z,13.20
2022-08-18T17:06:47.210Z,13.73
2022-08-18T17:09:16.802Z,12.30
2022-08-18T17:11:48.061Z,12.00
2022-08-18T17:14:21.704Z,12.57
2022-08-18T17:16:54.177Z,12.00
2022-08-18T17:19:23.274Z,12.53
2022-08-18T17:21:52.807Z,12.17
2022-08-18T17:24:31.531Z,11.33
2022-08-18T17:27:15.653Z,12.37
2022-08-18T17:30:04.838Z,11.63
2022-08-18T17:32:41.927Z,12.43
2022-08-18T17:35:15.728Z,14.73
2022-08-18T17:37:52.190Z,17.57
2022-08-18T17:40:28.700Z,15.70
2022-08-18T17:42:59.747Z,13.17
2022-08-18T17:45:35.862Z,12.03
2022-08-18T17:48:13.720Z,10.07
2022-08-18T17:51:09.773Z,10.80
2022-08-18T17:53:39.545Z,9.70
2022-08-18T17:56:13.359Z,10.00
2022-08-18T17:58:50.236Z,7.80
2022-08-18T18:01:18.576Z,7.70
2022-08-18T18:03:46.855Z,8.50
2022-08-18T18:06:29.425Z,8.80
2022-08-18T18:09:03.452Z,8.63
2022-08-18T18:11:34.976Z,7.90
2022-08-18T18:14:25.242Z,8.40
2022-08-18T18:17:14.763Z,8.30
2022-08-18T18:19:43.602Z,8.00
2022-08-18T18:22:21.433Z,7.97
2022-08-18T18:24:55.591Z,8.17
2022-08-18T18:27:31.372Z,8.37
2022-08-18T18:30:05.901Z,10.13
2022-08-18T18:32:38.201Z,9.57
2022-08-18T18:35:18.997Z,9.50
2022-08-18T18:37:54.429Z,7.50
2022-08-18T18:40:33.479Z,8.10
2022-08-18T18:43:23.077Z,8.37
2022-08-18T18:46:23.174Z,9.37
2022-08-18T18:49:04.898Z,9.37
2022-08-18T18:51:44.551Z,9.07
2022-08-18T18:54:32.768Z,7.77
2022-08-18T18:57:03.510Z,9.07
2022-08-18T18:59:47.601Z,8.37
2022-08-18T19:02:33.757Z,8.83
2022-08-18T19:05:18.558Z,10.27
2022-08-18T19:08:06.509Z,10.57
2022-08-18T19:10:44.329Z,13.30
2022-08-18T19:13:25.121Z,10.07
2022-08-18T19:16:20.715Z,9.43
2022-08-18T19:19:35.383Z,9.60
2022-08-18T19:22:03.642Z,8.93
2022-08-18T19:24:42.109Z,8.43
2022-08-18T19:27:23.259Z,9.40
2022-08-18T19:29:59.473Z,9.10
2022-08-18T19:32:38.078Z,8.73
2022-08-18T19:35:12.180Z,6.53
2022-08-18T19:38:10.030Z,7.60
2022-08-18T19:40:45.408Z,8.73
2022-08-18T19:43:26.510Z,9.03
2022-08-18T19:46:11.072Z,11.20
2022-08-18T19:48:44.893Z,9.30
2022-08-18T19:51:26.499Z,10.17
2022-08-18T19:54:19.546Z,8.77
2022-08-18T19:57:09.395Z,8.70
2022-08-18T20:00:07.790Z,8.30
2022-08-18T20:03:04.147Z,7.00
2022-08-18T20:05:43.182Z,7.00
2022-08-18T20:08:51.776Z,9.57
2022-08-18T20:11:59.146Z,6.80
2022-08-18T20:14:27.684Z,8.20
2022-08-18T20:17:22.882Z,7.47
2022-08-18T20:20:23.753Z,8.23
2022-08-18T20:22:57.163Z,6.97
2022-08-18T20:25:44.954Z,6.90
2022-08-18T20:28:36.351Z,6.90
2022-08-18T20:31:14.756Z,6.33
2022-08-18T20:33:47.940Z,7.00
2022-08-18T20:36:28.896Z,7.83
2022-08-18T20:38:59.569Z,6.57
2022-08-18T20:41:39.207Z,6.67
2022-08-18T20:44:37.402Z,6.83
2022-08-18T20:47:37.725Z,8.70
2022-08-18T20:50:42.421Z,7.53
2022-08-18T20:53:26.559Z,7.17
2022-08-18T20:56:13.077Z,6.67
2022-08-18T20:59:09.036Z,7.90
2022-08-18T21:01:38.916Z,6.13
2022-08-18T21:04:07.777Z,6.73
2022-08-18T21:06:41.963Z,7.43
2022-08-18T21:09:12.288Z,6.37
2022-08-18T21:11:44.238Z,6.43
2022-08-18T21:14:15.377Z,5.97
2022-08-18T21:16:46.517Z,7.30
2022-08-18T21:19:23.539Z,7.33
2022-08-18T21:21:56.690Z,7.47
2022-08-18T21:24:33.873Z,6.03
2022-08-18T21:27:07.315Z,6.30
2022-08-18T21:29:47.038Z,5.33
2022-08-18T21:32:21.821Z,6.57
2022-08-18T21:34:51.267Z,6.47
2022-08-18T21:37:20.988Z,6.37
2022-08-18T21:39:55.716Z,7.10
2022-08-18T21:42:27.882Z,6.00
2022-08-18T21:45:00.742Z,7.10
2022-08-18T21:47:33.836Z,6.30
2022-08-18T21:50:10.862Z,6.00
2022-08-18T21:52:51.957Z,5.83
2022-08-18T21:55:30.207Z,6.53
2022-08-18T21:58:07.651Z,6.00
2022-08-18T22:00:38.713Z,5.70
2022-08-18T22:03:20.882Z,6.93
2022-08-18T22:06:00.588Z,6.23
2022-08-18T22:08:32.156Z,6.27
2022-08-18T22:11:52.015Z,6.00
2022-08-18T22:14:54.652Z,6.23
2022-08-18T22:17:35.016Z,6.10
2022-08-18T22:20:43.658Z,6.80
2022-08-18T22:23:52.436Z,5.60
2022-08-18T22:26:27.398Z,6.53
2022-08-18T22:29:02.082Z,5.80
2022-08-18T22:31:34.807Z,6.00
2022-08-18T22:34:07.274Z,5.37
2022-08-18T22:36:38.800Z,5.80
2022-08-18T22:39:10.186Z,5.80
2022-08-18T22:41:41.662Z,5.40
2022-08-18T22:44:10.351Z,7.00
2022-08-18T22:46:38.748Z,6.30
2022-08-18T22:49:06.969Z,6.90
2022-08-18T22:51:37.286Z,6.40
2022-08-18T22:54:08.286Z,6.30
2022-08-18T22:56:37.912Z,6.00
2022-08-18T22:59:15.632Z,5.27
2022-08-18T23:01:48.155Z,5.73
2022-08-18T23:04:18.121Z,6.10
2022-08-18T23:06:51.763Z,6.50
2022-08-18T23:09:22.953Z,5.20
2022-08-18T23:11:52.293Z,5.60
2022-08-18T23:14:22.198Z,5.23
2022-08-18T23:16:51.202Z,6.97
2022-08-18T23:19:21.464Z,5.63
2022-08-18T23:21:51.583Z,4.87
2022-08-18T23:24:21.943Z,5.80
2022-08-18T23:26:50.306Z,5.40
2022-08-18T23:29:21.241Z,5.83
2022-08-18T23:31:51.382Z,5.40
2022-08-18T23:34:22.867Z,5.30
2022-08-18T23:36:56.164Z,4.60
2022-08-18T23:39:26.127Z,5.53
2022-08-18T23:41:54.316Z,6.00
2022-08-18T23:44:27.810Z,5.90
2022-08-18T23:46:57.842Z,5.47
2022-08-18T23:49:29.082Z,5.10
2022-08-18T23:51:59.224Z,5.03
2022-08-18T23:54:30.467Z,6.07
2022-08-18T23:56:59.277Z,4.93
2022-08-18T23:59:29.909Z,5.43
